Girona, Spain

10:08 AM CET on December 18, 2014 (GMT +0100)
Salitja | Change Station
CLOSE
Current Station
Personal Weather Station
Location: Vilobi d'Onyar, CT
Elevation: 479 ft
Nearby Weather Stations

Elev 479 ft 41.91 °N, 2.74 °E | Updated 1 minute ago

Partly Cloudy
Partly Cloudy
47.6 °F
Feels Like 48 °F
N
0.0
Wind Variable Wind from SSW
Gusts 0.0 mph

Today
High -- | Low -- °F
--% Chance of Precip.
Yesterday
High -- | Low -- °F
Precip. -- in
8:11 AM 5:19 PM
Waning Crescent, 16% visible
Pressure 30.18 in
Visibility 6.2 miles
Clouds Few 2500 ft
Windchill 48 °F
Dew Point 45 °F
Humidity 91%
Rainfall 0.00 in
Snow Depth Not available.
UV 1 out of 12
Pollen Not available.
Air Quality Not available.
Flu Activity Not available.
METAR LEGE 180900Z 00000KT 9999 FEW025 09/08 Q1022

More Conditions Fewer Conditions

Pressure 30.18 in
Visibility 6.2 miles
Clouds Few 2500 ft
Windchill 48 °F
Dew Point 45 °F
Humidity 91%
Rainfall 0.00 in
Snow Depth Not available.
UV 1 out of 12
Pollen Not available.
Air Quality Not available.
Flu Activity Not available.
METAR LEGE 180900Z 00000KT 9999 FEW025 09/08 Q1022

More Conditions Fewer Conditions

10-Day Weather Forecast

Almanac

Astronomy

Dec. 18, 2014 Rise Set
Actual Time
Civil Twilight
Nautical Twilight
Astronomical Twilight
Moon
Length of Visible Light
Length of Day
Tomorrow will be .
, % of the Moon is Illuminated

Today's Extremes

Country Highs Country Lows

Community

WunderPhotos

Upload Photos

1,778,907 photos uploaded!

WunderBlogs® & News

Nearby

Air Quality

  Air Quality AQ Index Pollutant
Not available.

Snow Depth

Station Depth Elevation

Earthquake Activity

City Distance Mag. Time & Date
Minimum magnitude displayed is 2.5.

Coastal Water Temperatures

Place Temperature

Nearby Weather Stations